sensor_id;sensor_type;location;lat;lon;timestamp;P1;durP1;ratioP1;P2;durP2;ratioP2
49366;SDS011;35245;52.026;8.540;2023-07-13T00:02:26;7.20;;;2.70;;
49366;SDS011;35245;52.026;8.540;2023-07-13T00:04:53;9.80;;;2.35;;
49366;SDS011;35245;52.026;8.540;2023-07-13T00:07:20;4.60;;;2.13;;
49366;SDS011;35245;52.026;8.540;2023-07-13T00:09:50;7.35;;;2.25;;
49366;SDS011;35245;52.026;8.540;2023-07-13T00:12:22;9.10;;;2.20;;
49366;SDS011;35245;52.026;8.540;2023-07-13T00:14:53;6.10;;;2.50;;
49366;SDS011;35245;52.026;8.540;2023-07-13T00:17:23;5.60;;;2.72;;
49366;SDS011;35245;52.026;8.540;2023-07-13T00:19:50;6.47;;;2.25;;
49366;SDS011;35245;52.026;8.540;2023-07-13T00:22:18;6.68;;;2.28;;
49366;SDS011;35245;52.026;8.540;2023-07-13T00:24:45;8.68;;;2.20;;
49366;SDS011;35245;52.026;8.540;2023-07-13T00:27:13;8.65;;;2.30;;
49366;SDS011;35245;52.026;8.540;2023-07-13T00:29:42;6.72;;;2.05;;
49366;SDS011;35245;52.026;8.540;2023-07-13T00:32:10;6.45;;;2.13;;
49366;SDS011;35245;52.026;8.540;2023-07-13T00:34:37;6.60;;;2.20;;
49366;SDS011;35245;52.026;8.540;2023-07-13T00:37:05;9.65;;;2.67;;
49366;SDS011;35245;52.026;8.540;2023-07-13T00:39:33;6.25;;;1.90;;
49366;SDS011;35245;52.026;8.540;2023-07-13T00:42:02;6.57;;;2.22;;
49366;SDS011;35245;52.026;8.540;2023-07-13T00:44:31;8.32;;;2.22;;
49366;SDS011;35245;52.026;8.540;2023-07-13T00:46:59;5.15;;;2.13;;
49366;SDS011;35245;52.026;8.540;2023-07-13T00:49:27;7.90;;;2.45;;
49366;SDS011;35245;52.026;8.540;2023-07-13T00:54:28;7.80;;;2.55;;
49366;SDS011;35245;52.026;8.540;2023-07-13T00:57:00;8.13;;;2.20;;
49366;SDS011;35245;52.026;8.540;2023-07-13T00:59:33;4.95;;;2.40;;
49366;SDS011;35245;52.026;8.540;2023-07-13T01:02:03;6.13;;;2.97;;
49366;SDS011;35245;52.026;8.540;2023-07-13T01:04:30;6.22;;;1.98;;
49366;SDS011;35245;52.026;8.540;2023-07-13T01:06:57;6.47;;;2.25;;
49366;SDS011;35245;52.026;8.540;2023-07-13T01:09:26;6.75;;;2.45;;
49366;SDS011;35245;52.026;8.540;2023-07-13T01:11:54;5.45;;;2.25;;
49366;SDS011;35245;52.026;8.540;2023-07-13T01:14:21;9.48;;;2.97;;
49366;SDS011;35245;52.026;8.540;2023-07-13T01:16:49;8.05;;;2.38;;
49366;SDS011;35245;52.026;8.540;2023-07-13T01:19:21;6.18;;;2.33;;
49366;SDS011;35245;52.026;8.540;2023-07-13T01:22:02;7.22;;;2.22;;
49366;SDS011;35245;52.026;8.540;2023-07-13T01:24:33;5.88;;;2.30;;
49366;SDS011;35245;52.026;8.540;2023-07-13T01:27:02;7.65;;;2.20;;
49366;SDS011;35245;52.026;8.540;2023-07-13T01:29:31;8.25;;;2.42;;
49366;SDS011;35245;52.026;8.540;2023-07-13T01:32:00;9.07;;;3.13;;
49366;SDS011;35245;52.026;8.540;2023-07-13T01:34:27;6.70;;;2.72;;
49366;SDS011;35245;52.026;8.540;2023-07-13T01:36:54;5.85;;;2.17;;
49366;SDS011;35245;52.026;8.540;2023-07-13T01:39:23;8.60;;;2.08;;
49366;SDS011;35245;52.026;8.540;2023-07-13T01:41:50;4.15;;;2.13;;
49366;SDS011;35245;52.026;8.540;2023-07-13T01:44:17;6.10;;;2.22;;
49366;SDS011;35245;52.026;8.540;2023-07-13T01:46:44;6.70;;;2.72;;
49366;SDS011;35245;52.026;8.540;2023-07-13T01:49:11;6.55;;;2.50;;
49366;SDS011;35245;52.026;8.540;2023-07-13T01:51:38;5.85;;;3.05;;
49366;SDS011;35245;52.026;8.540;2023-07-13T01:54:05;4.55;;;2.70;;
49366;SDS011;35245;52.026;8.540;2023-07-13T01:56:33;8.20;;;3.15;;
49366;SDS011;35245;52.026;8.540;2023-07-13T01:59:00;11.73;;;3.17;;
49366;SDS011;35245;52.026;8.540;2023-07-13T02:01:28;10.65;;;3.78;;
49366;SDS011;35245;52.026;8.540;2023-07-13T02:03:55;5.88;;;2.90;;
49366;SDS011;35245;52.026;8.540;2023-07-13T02:06:22;7.03;;;3.00;;
49366;SDS011;35245;52.026;8.540;2023-07-13T02:08:49;6.18;;;3.00;;
49366;SDS011;35245;52.026;8.540;2023-07-13T02:11:16;6.32;;;2.92;;
49366;SDS011;35245;52.026;8.540;2023-07-13T02:13:44;9.75;;;3.08;;
49366;SDS011;35245;52.026;8.540;2023-07-13T02:16:11;5.90;;;3.13;;
49366;SDS011;35245;52.026;8.540;2023-07-13T02:18:39;7.15;;;3.17;;
49366;SDS011;35245;52.026;8.540;2023-07-13T02:21:06;6.30;;;2.80;;
49366;SDS011;35245;52.026;8.540;2023-07-13T02:23:33;8.52;;;3.17;;
49366;SDS011;35245;52.026;8.540;2023-07-13T02:26:01;9.20;;;2.97;;
49366;SDS011;35245;52.026;8.540;2023-07-13T02:28:30;7.03;;;3.42;;
49366;SDS011;35245;52.026;8.540;2023-07-13T02:31:05;10.07;;;3.50;;
49366;SDS011;35245;52.026;8.540;2023-07-13T02:33:33;11.02;;;3.15;;
49366;SDS011;35245;52.026;8.540;2023-07-13T02:36:01;9.20;;;3.30;;
49366;SDS011;35245;52.026;8.540;2023-07-13T02:38:30;7.13;;;3.35;;
49366;SDS011;35245;52.026;8.540;2023-07-13T02:40:58;6.07;;;3.17;;
49366;SDS011;35245;52.026;8.540;2023-07-13T02:43:26;8.27;;;3.03;;
49366;SDS011;35245;52.026;8.540;2023-07-13T02:45:54;7.97;;;3.20;;
49366;SDS011;35245;52.026;8.540;2023-07-13T02:48:27;7.55;;;2.80;;
49366;SDS011;35245;52.026;8.540;2023-07-13T02:50:54;9.15;;;3.17;;
49366;SDS011;35245;52.026;8.540;2023-07-13T02:53:21;8.48;;;3.55;;
49366;SDS011;35245;52.026;8.540;2023-07-13T02:55:48;8.50;;;3.25;;
49366;SDS011;35245;52.026;8.540;2023-07-13T02:58:15;6.72;;;2.85;;
49366;SDS011;35245;52.026;8.540;2023-07-13T03:00:43;5.72;;;2.83;;
49366;SDS011;35245;52.026;8.540;2023-07-13T03:03:12;8.80;;;3.78;;
49366;SDS011;35245;52.026;8.540;2023-07-13T03:05:41;10.27;;;3.58;;
49366;SDS011;35245;52.026;8.540;2023-07-13T03:08:15;6.78;;;2.83;;
49366;SDS011;35245;52.026;8.540;2023-07-13T03:10:43;7.43;;;3.35;;
49366;SDS011;35245;52.026;8.540;2023-07-13T03:13:10;10.73;;;3.50;;
49366;SDS011;35245;52.026;8.540;2023-07-13T03:15:37;8.68;;;3.47;;
49366;SDS011;35245;52.026;8.540;2023-07-13T03:18:04;10.57;;;3.70;;
49366;SDS011;35245;52.026;8.540;2023-07-13T03:20:32;7.18;;;3.28;;
49366;SDS011;35245;52.026;8.540;2023-07-13T03:23:01;7.45;;;3.30;;
49366;SDS011;35245;52.026;8.540;2023-07-13T03:25:29;8.13;;;3.63;;
49366;SDS011;35245;52.026;8.540;2023-07-13T03:27:56;10.70;;;3.63;;
49366;SDS011;35245;52.026;8.540;2023-07-13T03:30:23;13.13;;;3.33;;
49366;SDS011;35245;52.026;8.540;2023-07-13T03:32:50;13.57;;;3.90;;
49366;SDS011;35245;52.026;8.540;2023-07-13T03:35:17;11.63;;;3.42;;
49366;SDS011;35245;52.026;8.540;2023-07-13T03:37:44;8.48;;;3.33;;
49366;SDS011;35245;52.026;8.540;2023-07-13T03:40:13;4.78;;;3.47;;
49366;SDS011;35245;52.026;8.540;2023-07-13T03:42:40;11.27;;;4.03;;
49366;SDS011;35245;52.026;8.540;2023-07-13T03:45:08;7.45;;;3.67;;
49366;SDS011;35245;52.026;8.540;2023-07-13T03:47:35;12.52;;;3.17;;
49366;SDS011;35245;52.026;8.540;2023-07-13T03:50:02;11.68;;;3.58;;
49366;SDS011;35245;52.026;8.540;2023-07-13T03:52:30;8.32;;;3.55;;
49366;SDS011;35245;52.026;8.540;2023-07-13T03:54:58;9.07;;;3.92;;
49366;SDS011;35245;52.026;8.540;2023-07-13T03:57:26;10.52;;;3.67;;
49366;SDS011;35245;52.026;8.540;2023-07-13T03:59:53;9.55;;;3.83;;
49366;SDS011;35245;52.026;8.540;2023-07-13T04:02:20;10.10;;;3.72;;
49366;SDS011;35245;52.026;8.540;2023-07-13T04:04:47;12.10;;;4.45;;
49366;SDS011;35245;52.026;8.540;2023-07-13T04:07:14;11.38;;;4.13;;
49366;SDS011;35245;52.026;8.540;2023-07-13T04:09:42;10.80;;;4.65;;
49366;SDS011;35245;52.026;8.540;2023-07-13T04:12:09;11.98;;;4.15;;
49366;SDS011;35245;52.026;8.540;2023-07-13T04:14:37;8.82;;;3.83;;
49366;SDS011;35245;52.026;8.540;2023-07-13T04:17:04;9.82;;;3.25;;
49366;SDS011;35245;52.026;8.540;2023-07-13T04:19:32;9.85;;;4.03;;
49366;SDS011;35245;52.026;8.540;2023-07-13T04:21:59;9.35;;;3.53;;
49366;SDS011;35245;52.026;8.540;2023-07-13T04:24:26;7.30;;;3.70;;
49366;SDS011;35245;52.026;8.540;2023-07-13T04:26:53;9.63;;;4.10;;
49366;SDS011;35245;52.026;8.540;2023-07-13T04:29:24;9.65;;;3.40;;
49366;SDS011;35245;52.026;8.540;2023-07-13T04:31:52;8.52;;;3.65;;
49366;SDS011;35245;52.026;8.540;2023-07-13T04:34:19;8.02;;;3.40;;
49366;SDS011;35245;52.026;8.540;2023-07-13T04:36:47;11.32;;;3.97;;
49366;SDS011;35245;52.026;8.540;2023-07-13T04:39:14;8.40;;;3.45;;
49366;SDS011;35245;52.026;8.540;2023-07-13T04:41:42;8.00;;;3.40;;
49366;SDS011;35245;52.026;8.540;2023-07-13T04:44:09;9.00;;;3.60;;
49366;SDS011;35245;52.026;8.540;2023-07-13T04:46:36;8.77;;;3.53;;
49366;SDS011;35245;52.026;8.540;2023-07-13T04:49:05;6.70;;;3.42;;
49366;SDS011;35245;52.026;8.540;2023-07-13T04:51:32;8.27;;;3.17;;
49366;SDS011;35245;52.026;8.540;2023-07-13T04:53:59;11.55;;;3.40;;
49366;SDS011;35245;52.026;8.540;2023-07-13T04:56:26;6.70;;;2.88;;
49366;SDS011;35245;52.026;8.540;2023-07-13T04:58:54;7.78;;;3.17;;
49366;SDS011;35245;52.026;8.540;2023-07-13T05:01:21;8.70;;;2.78;;
49366;SDS011;35245;52.026;8.540;2023-07-13T05:03:48;7.15;;;2.70;;
49366;SDS011;35245;52.026;8.540;2023-07-13T05:06:16;6.28;;;2.78;;
49366;SDS011;35245;52.026;8.540;2023-07-13T05:08:43;12.05;;;3.38;;
49366;SDS011;35245;52.026;8.540;2023-07-13T05:11:10;8.43;;;3.03;;
49366;SDS011;35245;52.026;8.540;2023-07-13T05:13:37;7.43;;;2.42;;
49366;SDS011;35245;52.026;8.540;2023-07-13T05:16:05;12.02;;;3.00;;
49366;SDS011;35245;52.026;8.540;2023-07-13T05:18:33;12.60;;;3.20;;
49366;SDS011;35245;52.026;8.540;2023-07-13T05:21:01;12.25;;;3.22;;
49366;SDS011;35245;52.026;8.540;2023-07-13T05:23:32;8.90;;;2.60;;
49366;SDS011;35245;52.026;8.540;2023-07-13T05:26:00;5.85;;;2.80;;
49366;SDS011;35245;52.026;8.540;2023-07-13T05:28:29;12.40;;;2.90;;
49366;SDS011;35245;52.026;8.540;2023-07-13T05:30:57;11.10;;;3.00;;
49366;SDS011;35245;52.026;8.540;2023-07-13T05:33:25;9.98;;;2.95;;
49366;SDS011;35245;52.026;8.540;2023-07-13T05:35:52;9.05;;;2.70;;
49366;SDS011;35245;52.026;8.540;2023-07-13T05:38:20;8.02;;;2.33;;
49366;SDS011;35245;52.026;8.540;2023-07-13T05:40:49;10.82;;;3.03;;
49366;SDS011;35245;52.026;8.540;2023-07-13T05:43:16;12.82;;;2.70;;
49366;SDS011;35245;52.026;8.540;2023-07-13T05:45:44;8.43;;;2.50;;
49366;SDS011;35245;52.026;8.540;2023-07-13T05:48:11;9.68;;;3.17;;
49366;SDS011;35245;52.026;8.540;2023-07-13T05:50:38;7.20;;;2.63;;
49366;SDS011;35245;52.026;8.540;2023-07-13T05:53:05;9.32;;;2.78;;
49366;SDS011;35245;52.026;8.540;2023-07-13T05:55:32;10.93;;;2.85;;
49366;SDS011;35245;52.026;8.540;2023-07-13T05:58:01;7.25;;;2.20;;
49366;SDS011;35245;52.026;8.540;2023-07-13T06:00:28;8.70;;;2.83;;
49366;SDS011;35245;52.026;8.540;2023-07-13T06:02:55;5.90;;;2.20;;
49366;SDS011;35245;52.026;8.540;2023-07-13T06:05:23;8.77;;;2.90;;
49366;SDS011;35245;52.026;8.540;2023-07-13T06:07:50;10.73;;;2.72;;
49366;SDS011;35245;52.026;8.540;2023-07-13T06:10:17;6.25;;;2.22;;
49366;SDS011;35245;52.026;8.540;2023-07-13T06:12:45;10.63;;;2.97;;
49366;SDS011;35245;52.026;8.540;2023-07-13T06:15:13;7.50;;;2.42;;
49366;SDS011;35245;52.026;8.540;2023-07-13T06:17:41;9.38;;;2.72;;
49366;SDS011;35245;52.026;8.540;2023-07-13T06:20:09;15.05;;;3.45;;
49366;SDS011;35245;52.026;8.540;2023-07-13T06:22:36;11.73;;;3.33;;
49366;SDS011;35245;52.026;8.540;2023-07-13T06:25:03;14.10;;;3.40;;
49366;SDS011;35245;52.026;8.540;2023-07-13T06:27:32;14.68;;;2.92;;
49366;SDS011;35245;52.026;8.540;2023-07-13T06:29:59;11.05;;;3.05;;
49366;SDS011;35245;52.026;8.540;2023-07-13T06:32:27;12.30;;;3.00;;
49366;SDS011;35245;52.026;8.540;2023-07-13T06:34:55;15.75;;;3.08;;
49366;SDS011;35245;52.026;8.540;2023-07-13T06:37:22;15.48;;;4.13;;
49366;SDS011;35245;52.026;8.540;2023-07-13T06:39:49;11.70;;;3.25;;
49366;SDS011;35245;52.026;8.540;2023-07-13T06:42:16;12.77;;;3.40;;
49366;SDS011;35245;52.026;8.540;2023-07-13T06:44:43;13.50;;;3.67;;
49366;SDS011;35245;52.026;8.540;2023-07-13T06:47:10;11.05;;;3.47;;
49366;SDS011;35245;52.026;8.540;2023-07-13T06:49:39;11.52;;;3.05;;
49366;SDS011;35245;52.026;8.540;2023-07-13T06:52:06;15.60;;;3.92;;
49366;SDS011;35245;52.026;8.540;2023-07-13T06:54:33;6.75;;;3.08;;
49366;SDS011;35245;52.026;8.540;2023-07-13T06:57:00;11.60;;;3.13;;
49366;SDS011;35245;52.026;8.540;2023-07-13T06:59:28;14.77;;;4.03;;
49366;SDS011;35245;52.026;8.540;2023-07-13T07:01:55;11.27;;;3.40;;
49366;SDS011;35245;52.026;8.540;2023-07-13T07:04:22;11.48;;;3.50;;
49366;SDS011;35245;52.026;8.540;2023-07-13T07:06:50;11.95;;;3.28;;
49366;SDS011;35245;52.026;8.540;2023-07-13T07:09:17;17.10;;;4.32;;
49366;SDS011;35245;52.026;8.540;2023-07-13T07:11:44;16.27;;;4.20;;
49366;SDS011;35245;52.026;8.540;2023-07-13T07:14:11;15.10;;;4.03;;
49366;SDS011;35245;52.026;8.540;2023-07-13T07:16:38;11.07;;;3.75;;
49366;SDS011;35245;52.026;8.540;2023-07-13T07:19:05;8.90;;;3.60;;
49366;SDS011;35245;52.026;8.540;2023-07-13T07:21:32;13.35;;;4.28;;
49366;SDS011;35245;52.026;8.540;2023-07-13T07:24:01;11.27;;;3.88;;
49366;SDS011;35245;52.026;8.540;2023-07-13T07:26:29;9.95;;;3.30;;
49366;SDS011;35245;52.026;8.540;2023-07-13T07:28:56;12.45;;;3.10;;
49366;SDS011;35245;52.026;8.540;2023-07-13T07:31:23;11.15;;;4.00;;
49366;SDS011;35245;52.026;8.540;2023-07-13T07:33:51;7.85;;;3.42;;
49366;SDS011;35245;52.026;8.540;2023-07-13T07:36:18;11.85;;;5.07;;
49366;SDS011;35245;52.026;8.540;2023-07-13T07:38:45;12.93;;;3.58;;
49366;SDS011;35245;52.026;8.540;2023-07-13T07:41:13;10.25;;;3.72;;
49366;SDS011;35245;52.026;8.540;2023-07-13T07:43:40;12.57;;;3.92;;
49366;SDS011;35245;52.026;8.540;2023-07-13T07:46:07;8.65;;;3.45;;
49366;SDS011;35245;52.026;8.540;2023-07-13T07:48:34;10.35;;;3.17;;
49366;SDS011;35245;52.026;8.540;2023-07-13T07:51:01;13.45;;;3.40;;
49366;SDS011;35245;52.026;8.540;2023-07-13T07:53:29;11.07;;;3.83;;
49366;SDS011;35245;52.026;8.540;2023-07-13T07:55:56;12.25;;;3.85;;
49366;SDS011;35245;52.026;8.540;2023-07-13T07:58:24;11.48;;;3.60;;
49366;SDS011;35245;52.026;8.540;2023-07-13T08:00:52;7.90;;;3.28;;
49366;SDS011;35245;52.026;8.540;2023-07-13T08:03:19;10.77;;;3.33;;
49366;SDS011;35245;52.026;8.540;2023-07-13T08:05:46;9.52;;;3.20;;
49366;SDS011;35245;52.026;8.540;2023-07-13T08:08:13;12.68;;;3.70;;
49366;SDS011;35245;52.026;8.540;2023-07-13T08:10:40;10.80;;;3.55;;
49366;SDS011;35245;52.026;8.540;2023-07-13T08:13:07;10.90;;;3.38;;
49366;SDS011;35245;52.026;8.540;2023-07-13T08:15:36;8.27;;;2.88;;
49366;SDS011;35245;52.026;8.540;2023-07-13T08:18:03;8.60;;;3.42;;
49366;SDS011;35245;52.026;8.540;2023-07-13T08:20:31;10.77;;;3.50;;
49366;SDS011;35245;52.026;8.540;2023-07-13T08:22:58;7.95;;;2.55;;
49366;SDS011;35245;52.026;8.540;2023-07-13T08:25:25;9.85;;;2.95;;
49366;SDS011;35245;52.026;8.540;2023-07-13T08:27:52;8.57;;;2.85;;
49366;SDS011;35245;52.026;8.540;2023-07-13T08:30:19;10.63;;;3.13;;
49366;SDS011;35245;52.026;8.540;2023-07-13T08:32:48;6.50;;;2.80;;
49366;SDS011;35245;52.026;8.540;2023-07-13T08:35:15;12.75;;;2.65;;
49366;SDS011;35245;52.026;8.540;2023-07-13T08:37:42;9.68;;;2.85;;
49366;SDS011;35245;52.026;8.540;2023-07-13T08:40:10;11.80;;;3.00;;
49366;SDS011;35245;52.026;8.540;2023-07-13T08:42:39;7.43;;;2.80;;
49366;SDS011;35245;52.026;8.540;2023-07-13T08:45:13;13.95;;;3.30;;
49366;SDS011;35245;52.026;8.540;2023-07-13T08:47:50;10.82;;;3.20;;
49366;SDS011;35245;52.026;8.540;2023-07-13T08:50:21;9.60;;;3.25;;
49366;SDS011;35245;52.026;8.540;2023-07-13T08:52:56;9.15;;;2.60;;
49366;SDS011;35245;52.026;8.540;2023-07-13T08:55:26;9.57;;;3.53;;
49366;SDS011;35245;52.026;8.540;2023-07-13T08:57:59;8.10;;;2.75;;
49366;SDS011;35245;52.026;8.540;2023-07-13T09:00:34;5.28;;;2.33;;
49366;SDS011;35245;52.026;8.540;2023-07-13T09:03:15;10.95;;;3.08;;
49366;SDS011;35245;52.026;8.540;2023-07-13T09:05:49;7.35;;;3.25;;
49366;SDS011;35245;52.026;8.540;2023-07-13T09:08:29;7.60;;;3.20;;
49366;SDS011;35245;52.026;8.540;2023-07-13T09:11:16;8.32;;;2.92;;
49366;SDS011;35245;52.026;8.540;2023-07-13T09:14:02;7.55;;;3.10;;
49366;SDS011;35245;52.026;8.540;2023-07-13T09:16:52;8.45;;;3.35;;
49366;SDS011;35245;52.026;8.540;2023-07-13T09:19:23;6.13;;;3.00;;
49366;SDS011;35245;52.026;8.540;2023-07-13T09:21:57;7.18;;;2.92;;
49366;SDS011;35245;52.026;8.540;2023-07-13T09:24:29;10.70;;;2.95;;
49366;SDS011;35245;52.026;8.540;2023-07-13T09:27:05;8.32;;;2.78;;
49366;SDS011;35245;52.026;8.540;2023-07-13T09:29:45;5.57;;;2.50;;
49366;SDS011;35245;52.026;8.540;2023-07-13T09:32:17;6.35;;;2.55;;
49366;SDS011;35245;52.026;8.540;2023-07-13T09:34:51;6.63;;;2.90;;
49366;SDS011;35245;52.026;8.540;2023-07-13T09:37:20;7.68;;;3.03;;
49366;SDS011;35245;52.026;8.540;2023-07-13T09:39:50;6.60;;;2.72;;
49366;SDS011;35245;52.026;8.540;2023-07-13T09:42:20;8.48;;;2.50;;
49366;SDS011;35245;52.026;8.540;2023-07-13T09:44:51;5.60;;;2.20;;
49366;SDS011;35245;52.026;8.540;2023-07-13T09:47:21;7.50;;;2.70;;
49366;SDS011;35245;52.026;8.540;2023-07-13T09:49:56;6.82;;;2.78;;
49366;SDS011;35245;52.026;8.540;2023-07-13T09:52:25;9.30;;;2.67;;
49366;SDS011;35245;52.026;8.540;2023-07-13T09:54:54;9.93;;;3.08;;
49366;SDS011;35245;52.026;8.540;2023-07-13T09:57:24;6.55;;;3.10;;
49366;SDS011;35245;52.026;8.540;2023-07-13T09:59:54;7.25;;;2.10;;
49366;SDS011;35245;52.026;8.540;2023-07-13T10:02:25;8.18;;;2.70;;
49366;SDS011;35245;52.026;8.540;2023-07-13T10:05:00;6.38;;;2.70;;
49366;SDS011;35245;52.026;8.540;2023-07-13T10:07:30;5.50;;;2.55;;
49366;SDS011;35245;52.026;8.540;2023-07-13T10:09:59;7.25;;;2.85;;
49366;SDS011;35245;52.026;8.540;2023-07-13T10:12:28;5.95;;;2.78;;
49366;SDS011;35245;52.026;8.540;2023-07-13T10:15:02;7.53;;;3.03;;
49366;SDS011;35245;52.026;8.540;2023-07-13T10:17:34;8.65;;;2.72;;
49366;SDS011;35245;52.026;8.540;2023-07-13T10:20:04;8.65;;;3.53;;
49366;SDS011;35245;52.026;8.540;2023-07-13T10:22:39;5.35;;;2.70;;
49366;SDS011;35245;52.026;8.540;2023-07-13T10:25:16;8.70;;;3.47;;
49366;SDS011;35245;52.026;8.540;2023-07-13T10:27:47;5.55;;;2.53;;
49366;SDS011;35245;52.026;8.540;2023-07-13T10:32:50;5.15;;;2.63;;
49366;SDS011;35245;52.026;8.540;2023-07-13T10:35:21;4.20;;;2.75;;
49366;SDS011;35245;52.026;8.540;2023-07-13T10:37:51;6.85;;;2.92;;
49366;SDS011;35245;52.026;8.540;2023-07-13T10:40:25;5.88;;;2.92;;
49366;SDS011;35245;52.026;8.540;2023-07-13T10:42:58;5.50;;;3.08;;
49366;SDS011;35245;52.026;8.540;2023-07-13T10:45:31;9.25;;;3.20;;
49366;SDS011;35245;52.026;8.540;2023-07-13T10:48:02;5.18;;;2.80;;
49366;SDS011;35245;52.026;8.540;2023-07-13T10:50:32;7.32;;;3.40;;
49366;SDS011;35245;52.026;8.540;2023-07-13T10:53:02;7.50;;;3.08;;
49366;SDS011;35245;52.026;8.540;2023-07-13T10:55:54;7.82;;;3.00;;
49366;SDS011;35245;52.026;8.540;2023-07-13T10:58:28;11.00;;;3.85;;
49366;SDS011;35245;52.026;8.540;2023-07-13T11:01:02;9.05;;;3.88;;
49366;SDS011;35245;52.026;8.540;2023-07-13T11:03:36;5.65;;;3.30;;
49366;SDS011;35245;52.026;8.540;2023-07-13T11:06:30;8.68;;;3.88;;
49366;SDS011;35245;52.026;8.540;2023-07-13T11:09:17;10.77;;;4.00;;
49366;SDS011;35245;52.026;8.540;2023-07-13T11:12:27;8.02;;;3.85;;
49366;SDS011;35245;52.026;8.540;2023-07-13T11:15:26;8.95;;;4.43;;
49366;SDS011;35245;52.026;8.540;2023-07-13T11:18:02;9.93;;;4.65;;
49366;SDS011;35245;52.026;8.540;2023-07-13T11:20:31;9.88;;;4.15;;
49366;SDS011;35245;52.026;8.540;2023-07-13T11:23:19;6.55;;;3.45;;
49366;SDS011;35245;52.026;8.540;2023-07-13T11:25:56;7.45;;;3.30;;
49366;SDS011;35245;52.026;8.540;2023-07-13T11:28:25;11.75;;;4.00;;
49366;SDS011;35245;52.026;8.540;2023-07-13T11:31:13;8.70;;;3.88;;
49366;SDS011;35245;52.026;8.540;2023-07-13T11:33:51;8.13;;;3.20;;
49366;SDS011;35245;52.026;8.540;2023-07-13T11:36:29;10.10;;;4.78;;
49366;SDS011;35245;52.026;8.540;2023-07-13T11:39:10;7.95;;;3.38;;
49366;SDS011;35245;52.026;8.540;2023-07-13T11:41:48;9.88;;;3.83;;
49366;SDS011;35245;52.026;8.540;2023-07-13T11:44:19;7.30;;;3.63;;
49366;SDS011;35245;52.026;8.540;2023-07-13T11:46:50;10.18;;;3.67;;
49366;SDS011;35245;52.026;8.540;2023-07-13T11:49:20;8.85;;;4.00;;
49366;SDS011;35245;52.026;8.540;2023-07-13T11:51:50;7.90;;;3.80;;
49366;SDS011;35245;52.026;8.540;2023-07-13T11:54:23;9.40;;;4.10;;
49366;SDS011;35245;52.026;8.540;2023-07-13T11:56:53;6.75;;;2.95;;
49366;SDS011;35245;52.026;8.540;2023-07-13T11:59:22;6.47;;;3.15;;
49366;SDS011;35245;52.026;8.540;2023-07-13T12:01:51;15.32;;;3.60;;
49366;SDS011;35245;52.026;8.540;2023-07-13T12:04:21;9.15;;;2.80;;
49366;SDS011;35245;52.026;8.540;2023-07-13T12:06:54;8.95;;;2.75;;
49366;SDS011;35245;52.026;8.540;2023-07-13T12:09:27;4.40;;;2.17;;
49366;SDS011;35245;52.026;8.540;2023-07-13T12:11:56;4.07;;;2.47;;
49366;SDS011;35245;52.026;8.540;2023-07-13T12:16:53;4.80;;;2.25;;
49366;SDS011;35245;52.026;8.540;2023-07-13T12:19:21;5.82;;;2.35;;
49366;SDS011;35245;52.026;8.540;2023-07-13T12:21:52;4.78;;;2.40;;
49366;SDS011;35245;52.026;8.540;2023-07-13T12:26:55;21.95;;;3.53;;
49366;SDS011;35245;52.026;8.540;2023-07-13T12:29:27;12.32;;;2.95;;
49366;SDS011;35245;52.026;8.540;2023-07-13T12:31:54;4.95;;;2.53;;
49366;SDS011;35245;52.026;8.540;2023-07-13T12:34:22;4.63;;;2.60;;
49366;SDS011;35245;52.026;8.540;2023-07-13T12:36:52;10.57;;;3.08;;
49366;SDS011;35245;52.026;8.540;2023-07-13T12:39:21;7.40;;;2.70;;
49366;SDS011;35245;52.026;8.540;2023-07-13T12:41:51;6.68;;;2.63;;
49366;SDS011;35245;52.026;8.540;2023-07-13T12:44:39;6.05;;;2.45;;
49366;SDS011;35245;52.026;8.540;2023-07-13T12:47:09;17.00;;;4.15;;
49366;SDS011;35245;52.026;8.540;2023-07-13T12:49:42;11.02;;;4.38;;
49366;SDS011;35245;52.026;8.540;2023-07-13T12:52:15;15.35;;;3.58;;
49366;SDS011;35245;52.026;8.540;2023-07-13T12:54:53;7.80;;;3.00;;
49366;SDS011;35245;52.026;8.540;2023-07-13T12:57:24;13.65;;;3.50;;
49366;SDS011;35245;52.026;8.540;2023-07-13T12:59:52;5.90;;;3.35;;
49366;SDS011;35245;52.026;8.540;2023-07-13T13:02:23;6.93;;;3.30;;
49366;SDS011;35245;52.026;8.540;2023-07-13T13:04:56;8.85;;;3.15;;
49366;SDS011;35245;52.026;8.540;2023-07-13T13:07:23;6.55;;;3.33;;
49366;SDS011;35245;52.026;8.540;2023-07-13T13:09:51;5.60;;;2.60;;
49366;SDS011;35245;52.026;8.540;2023-07-13T13:12:20;5.00;;;2.53;;
49366;SDS011;35245;52.026;8.540;2023-07-13T13:14:50;4.72;;;2.67;;
49366;SDS011;35245;52.026;8.540;2023-07-13T13:17:18;6.70;;;2.47;;
49366;SDS011;35245;52.026;8.540;2023-07-13T13:19:50;18.60;;;3.55;;
49366;SDS011;35245;52.026;8.540;2023-07-13T13:22:19;7.30;;;2.28;;
49366;SDS011;35245;52.026;8.540;2023-07-13T13:24:46;9.30;;;2.40;;
49366;SDS011;35245;52.026;8.540;2023-07-13T13:27:16;6.13;;;2.47;;
49366;SDS011;35245;52.026;8.540;2023-07-13T13:29:47;8.02;;;2.60;;
49366;SDS011;35245;52.026;8.540;2023-07-13T13:34:46;7.78;;;2.65;;
49366;SDS011;35245;52.026;8.540;2023-07-13T13:37:16;8.45;;;2.53;;
49366;SDS011;35245;52.026;8.540;2023-07-13T13:39:46;5.75;;;2.42;;
49366;SDS011;35245;52.026;8.540;2023-07-13T13:42:14;8.20;;;2.60;;
49366;SDS011;35245;52.026;8.540;2023-07-13T13:44:41;6.75;;;2.88;;
49366;SDS011;35245;52.026;8.540;2023-07-13T13:47:17;9.68;;;2.85;;
49366;SDS011;35245;52.026;8.540;2023-07-13T13:49:55;12.32;;;2.97;;
49366;SDS011;35245;52.026;8.540;2023-07-13T13:52:23;7.18;;;3.58;;
49366;SDS011;35245;52.026;8.540;2023-07-13T13:54:50;9.57;;;3.30;;
49366;SDS011;35245;52.026;8.540;2023-07-13T13:57:20;6.60;;;2.80;;
49366;SDS011;35245;52.026;8.540;2023-07-13T13:59:49;9.52;;;3.22;;
49366;SDS011;35245;52.026;8.540;2023-07-13T14:02:22;13.35;;;4.50;;
49366;SDS011;35245;52.026;8.540;2023-07-13T14:04:52;11.27;;;4.90;;
49366;SDS011;35245;52.026;8.540;2023-07-13T14:07:22;9.15;;;5.10;;
49366;SDS011;35245;52.026;8.540;2023-07-13T14:09:50;7.95;;;3.83;;
49366;SDS011;35245;52.026;8.540;2023-07-13T14:12:18;6.65;;;3.08;;
49366;SDS011;35245;52.026;8.540;2023-07-13T14:14:45;7.45;;;2.97;;
49366;SDS011;35245;52.026;8.540;2023-07-13T14:17:17;8.38;;;3.70;;
49366;SDS011;35245;52.026;8.540;2023-07-13T14:19:51;6.05;;;3.90;;
49366;SDS011;35245;52.026;8.540;2023-07-13T14:22:22;8.48;;;4.20;;
49366;SDS011;35245;52.026;8.540;2023-07-13T14:24:51;6.70;;;3.33;;
49366;SDS011;35245;52.026;8.540;2023-07-13T14:27:19;8.05;;;3.85;;
49366;SDS011;35245;52.026;8.540;2023-07-13T14:29:46;6.57;;;3.40;;
49366;SDS011;35245;52.026;8.540;2023-07-13T14:32:13;10.30;;;4.30;;
49366;SDS011;35245;52.026;8.540;2023-07-13T14:34:42;8.40;;;4.43;;
49366;SDS011;35245;52.026;8.540;2023-07-13T14:37:11;8.70;;;4.30;;
49366;SDS011;35245;52.026;8.540;2023-07-13T14:39:42;9.20;;;5.18;;
49366;SDS011;35245;52.026;8.540;2023-07-13T14:42:10;6.88;;;3.92;;
49366;SDS011;35245;52.026;8.540;2023-07-13T14:44:38;10.30;;;4.60;;
49366;SDS011;35245;52.026;8.540;2023-07-13T14:47:05;7.82;;;3.80;;
49366;SDS011;35245;52.026;8.540;2023-07-13T14:49:34;8.07;;;4.50;;
49366;SDS011;35245;52.026;8.540;2023-07-13T14:52:10;6.50;;;3.80;;
49366;SDS011;35245;52.026;8.540;2023-07-13T14:54:40;5.88;;;3.25;;
49366;SDS011;35245;52.026;8.540;2023-07-13T14:57:09;6.10;;;3.00;;
49366;SDS011;35245;52.026;8.540;2023-07-13T14:59:37;6.13;;;2.25;;
49366;SDS011;35245;52.026;8.540;2023-07-13T15:02:11;2.83;;;2.40;;
49366;SDS011;35245;52.026;8.540;2023-07-13T15:04:42;3.20;;;2.28;;
49366;SDS011;35245;52.026;8.540;2023-07-13T15:07:11;4.35;;;2.50;;
49366;SDS011;35245;52.026;8.540;2023-07-13T15:09:40;5.03;;;2.42;;
49366;SDS011;35245;52.026;8.540;2023-07-13T15:12:08;4.13;;;2.45;;